Time;durP1;ratioP1;P1;durP2;ratioP2;P2;SDS_P1;SDS_P2;PMS_P1;PMS_P2;Temp;Humidity;BMP_temperature;BMP_pressure;BME280_temperature;BME280_humidity;BME280_pressure;Samples;Min_cycle;Max_cycle;Signal;HPM_P1;HPM_P2
2022/09/30 00:01:40;;;;;;;25.40;22.40;;;8.50;90.50;;;;;;4928297;29;20143;-75
2022/09/30 00:04:11;;;;;;;22.58;20.17;;;8.50;90.70;;;;;;4923807;29;20027;-75
2022/09/30 00:06:37;;;;;;;23.20;20.48;;;8.50;90.60;;;;;;4918805;29;20419;-75
2022/09/30 00:09:04;;;;;;;23.40;20.85;;;8.40;90.60;;;;;;4923744;29;20498;-74
2022/09/30 00:11:33;;;;;;;25.88;22.45;;;8.40;90.60;;;;;;4926371;29;20496;-74
2022/09/30 00:14:00;;;;;;;25.17;22.48;;;8.40;90.60;;;;;;4925379;29;20063;-74
2022/09/30 00:16:29;;;;;;;26.98;23.48;;;8.40;90.70;;;;;;4926907;29;21442;-75
2022/09/30 00:18:56;;;;;;;25.98;22.98;;;8.40;90.70;;;;;;4909726;29;20040;-74
2022/09/30 00:21:23;;;;;;;28.70;24.08;;;8.40;90.70;;;;;;4926113;29;20082;-75
2022/09/30 00:23:49;;;;;;;25.75;23.05;;;8.30;90.80;;;;;;4926756;29;20027;-76
2022/09/30 00:26:17;;;;;;;24.35;21.20;;;8.30;90.80;;;;;;4926169;29;20042;-74
2022/09/30 00:28:44;;;;;;;23.73;20.92;;;8.20;90.90;;;;;;4925221;28;20032;-80
2022/09/30 00:31:15;;;;;;;30.85;23.00;;;8.20;90.90;;;;;;4926788;29;20159;-75
2022/09/30 00:33:41;;;;;;;24.05;21.50;;;8.20;90.90;;;;;;4923916;28;20058;-74
2022/09/30 00:36:07;;;;;;;27.05;24.15;;;8.20;91.00;;;;;;4926677;29;20063;-76
2022/09/30 00:38:32;;;;;;;25.15;21.85;;;8.20;91.10;;;;;;4926116;29;20131;-77
2022/09/30 00:41:00;;;;;;;24.58;22.08;;;8.20;91.20;;;;;;4925357;29;20046;-74
2022/09/30 00:43:52;;;;;;;24.20;21.60;;;8.20;91.10;;;;;;4923261;29;20083;-77
2022/09/30 00:46:17;;;;;;;28.77;22.73;;;8.10;91.00;;;;;;4924012;29;20075;-79
2022/09/30 00:48:44;;;;;;;23.83;21.17;;;8.10;90.80;;;;;;4922232;29;20169;-76
2022/09/30 00:51:10;;;;;;;23.65;21.15;;;8.10;90.80;;;;;;4916410;29;20050;-74
2022/09/30 00:53:48;;;;;;;22.30;19.92;;;8.00;90.80;;;;;;4906677;29;20464;-75
2022/09/30 00:56:19;;;;;;;21.77;19.23;;;8.00;90.90;;;;;;4914701;29;20036;-73
2022/09/30 00:58:51;;;;;;;22.98;20.48;;;8.00;90.90;;;;;;4919841;28;20043;-75
2022/09/30 01:01:18;;;;;;;23.35;20.48;;;8.00;91.00;;;;;;4917305;29;20029;-74
2022/09/30 01:03:45;;;;;;;23.15;20.58;;;8.00;91.10;;;;;;4923183;28;20058;-75
2022/09/30 01:06:11;;;;;;;27.70;21.20;;;8.00;91.20;;;;;;4934895;29;20036;-78
2022/09/30 01:08:39;;;;;;;24.92;22.27;;;8.00;91.20;;;;;;4942486;28;20031;-78
2022/09/30 01:11:05;;;;;;;21.88;19.65;;;8.00;91.30;;;;;;4927661;29;20131;-76
2022/09/30 01:13:33;;;;;;;24.98;21.05;;;8.00;91.20;;;;;;4927966;28;20174;-74
2022/09/30 01:16:24;;;;;;;26.55;22.60;;;7.90;91.20;;;;;;4902203;29;20736;-74
2022/09/30 01:19:36;;;;;;;23.08;20.42;;;7.90;91.30;;;;;;4919365;29;20470;-75
2022/09/30 01:22:27;;;;;;;23.90;21.40;;;7.90;91.30;;;;;;4847251;29;20061;-77
2022/09/30 01:25:30;;;;;;;23.67;21.02;;;7.90;91.40;;;;;;4908338;29;20047;-74
2022/09/30 01:28:36;;;;;;;22.90;20.40;;;7.90;91.40;;;;;;4924988;29;20645;-76
2022/09/30 01:31:07;;;;;;;;;;;7.90;91.40;;;;;;4914989;29;20036;-77
2022/09/30 01:34:08;;;;;;;25.95;23.20;;;7.90;91.40;;;;;;4918473;28;19910;-74
2022/09/30 01:37:08;;;;;;;25.92;23.25;;;7.90;91.40;;;;;;4927403;28;20058;-74
2022/09/30 01:39:45;;;;;;;25.08;22.38;;;7.90;91.40;;;;;;4923860;28;21020;-75
2022/09/30 01:42:23;;;;;;;25.15;22.55;;;7.80;91.40;;;;;;4928570;29;20035;-73
2022/09/30 01:45:02;;;;;;;24.58;21.83;;;7.80;91.40;;;;;;4925819;29;20046;-73
2022/09/30 01:47:45;;;;;;;29.58;24.42;;;7.80;91.40;;;;;;4926978;29;20032;-75
2022/09/30 01:50:23;;;;;;;25.85;22.58;;;7.70;91.20;;;;;;4922473;28;20055;-74
2022/09/30 01:53:14;;;;;;;25.05;22.45;;;7.60;90.80;;;;;;4925948;29;20066;-74
2022/09/30 01:56:13;;;;;;;22.90;20.65;;;7.60;90.90;;;;;;4923172;29;20039;-77
2022/09/30 01:58:55;;;;;;;22.85;20.45;;;7.50;91.00;;;;;;4911543;29;20487;-74
2022/09/30 02:01:27;;;;;;;23.30;20.80;;;7.60;91.20;;;;;;4911539;29;20052;-74
2022/09/30 02:04:02;;;;;;;23.33;20.90;;;7.50;91.10;;;;;;4910540;29;20031;-74
2022/09/30 02:06:36;;;;;;;21.90;19.60;;;7.50;91.10;;;;;;4926604;29;20482;-75
2022/09/30 02:09:20;;;;;;;24.58;21.20;;;7.50;91.20;;;;;;4926160;28;20138;-76
2022/09/30 02:11:46;;;;;;;22.55;20.15;;;7.50;91.30;;;;;;4911011;29;20467;-74
2022/09/30 02:14:19;;;;;;;24.05;21.52;;;7.50;91.40;;;;;;4927603;29;20135;-74
2022/09/30 02:16:47;;;;;;;24.15;21.05;;;7.50;91.50;;;;;;4925372;28;20024;-75
2022/09/30 02:19:36;;;;;;;23.02;20.60;;;7.50;91.50;;;;;;4926839;29;20201;-73
2022/09/30 02:22:17;;;;;;;23.77;21.38;;;7.50;91.60;;;;;;4921052;29;20500;-77
2022/09/30 02:24:46;;;;;;;24.30;21.73;;;7.50;91.70;;;;;;4909162;28;20107;-79
2022/09/30 02:27:31;;;;;;;24.08;21.33;;;7.50;91.60;;;;;;4922372;29;20515;-74
2022/09/30 02:29:59;;;;;;;20.52;18.17;;;7.50;91.60;;;;;;4923211;28;20039;-74
2022/09/30 02:32:41;;;;;;;24.30;20.38;;;7.40;91.60;;;;;;4929321;29;20048;-79
2022/09/30 02:35:16;;;;;;;23.42;20.98;;;7.40;91.70;;;;;;4926993;28;20123;-76
2022/09/30 02:37:47;;;;;;;22.67;20.13;;;7.50;91.70;;;;;;4928686;29;20179;-75
2022/09/30 02:40:18;;;;;;;24.42;20.52;;;7.50;91.80;;;;;;4928661;28;20123;-74
2022/09/30 02:42:44;;;;;;;22.13;19.58;;;7.40;91.80;;;;;;4932357;29;20028;-74
2022/09/30 02:45:16;;;;;;;23.67;19.88;;;7.50;91.80;;;;;;4906524;29;20274;-74
2022/09/30 02:48:03;;;;;;;22.35;19.90;;;7.40;91.90;;;;;;4923842;29;20505;-75
2022/09/30 02:50:29;;;;;;;23.05;20.63;;;7.40;92.00;;;;;;4919237;29;20035;-74
2022/09/30 02:53:22;;;;;;;21.25;18.65;;;7.40;92.00;;;;;;4918967;29;20091;-76
2022/09/30 02:56:33;;;;;;;23.42;20.80;;;7.40;91.90;;;;;;4923746;29;20467;-75
2022/09/30 02:58:58;;;;;;;24.10;21.50;;;7.40;91.90;;;;;;4908845;29;20048;-75
2022/09/30 03:01:24;;;;;;;22.20;19.90;;;7.40;91.90;;;;;;4924763;28;21857;-75
2022/09/30 03:03:57;;;;;;;23.73;21.15;;;7.40;92.00;;;;;;4911446;29;20078;-74
2022/09/30 03:06:23;;;;;;;22.48;20.05;;;7.40;92.00;;;;;;4924063;29;20373;-79
2022/09/30 03:08:51;;;;;;;23.23;20.55;;;7.40;92.00;;;;;;4912754;29;20055;-74
2022/09/30 03:11:20;;;;;;;23.08;20.65;;;7.30;92.00;;;;;;4923783;29;20380;-76
2022/09/30 03:13:49;;;;;;;21.30;19.05;;;7.30;92.00;;;;;;4925731;29;20119;-74
2022/09/30 03:16:33;;;;;;;23.83;19.50;;;7.30;91.90;;;;;;4925874;29;20039;-74
2022/09/30 03:19:13;;;;;;;24.13;21.10;;;7.30;91.90;;;;;;4916751;29;20044;-78
2022/09/30 03:21:58;;;;;;;22.58;20.08;;;7.20;91.90;;;;;;4924906;29;20039;-76
2022/09/30 03:24:34;;;;;;;24.05;21.48;;;7.20;91.90;;;;;;4922788;29;20055;-75
2022/09/30 03:27:36;;;;;;;26.30;22.80;;;7.20;91.90;;;;;;4928588;29;20042;-74
2022/09/30 03:30:10;;;;;;;25.60;22.25;;;7.20;91.90;;;;;;4921642;28;20070;-75
2022/09/30 03:33:03;;;;;;;24.95;22.05;;;7.20;92.00;;;;;;4925864;28;20466;-75
2022/09/30 03:35:33;;;;;;;22.38;20.05;;;7.20;92.00;;;;;;4921815;28;20042;-73
2022/09/30 03:38:43;;;;;;;27.13;22.00;;;7.20;92.00;;;;;;4914150;29;20047;-72
2022/09/30 03:41:40;;;;;;;26.65;23.25;;;7.30;92.10;;;;;;4905273;29;20063;-76
2022/09/30 03:44:15;;;;;;;27.95;21.17;;;7.30;92.20;;;;;;4923564;29;20040;-76
2022/09/30 03:47:01;;;;;;;22.98;19.50;;;7.30;92.20;;;;;;4922380;29;20563;-75
2022/09/30 03:49:36;;;;;;;24.85;22.25;;;7.20;92.20;;;;;;4926538;28;20511;-76
2022/09/30 03:52:06;;;;;;;;;;;7.30;92.30;;;;;;4930493;29;20028;-75
2022/09/30 03:54:32;;;;;;;23.13;20.73;;;7.20;92.40;;;;;;4924787;29;19911;-75
2022/09/30 03:57:02;;;;;;;23.10;20.65;;;7.20;92.40;;;;;;4904630;29;20042;-75
2022/09/30 03:59:28;;;;;;;27.20;22.85;;;7.20;92.30;;;;;;4916166;29;20117;-75
2022/09/30 04:01:55;;;;;;;26.27;22.77;;;7.20;92.40;;;;;;4924679;29;20303;-74
2022/09/30 04:04:21;;;;;;;24.98;22.40;;;7.20;92.50;;;;;;4917831;29;20040;-75
2022/09/30 04:06:47;;;;;;;25.08;21.80;;;7.20;92.50;;;;;;4929580;29;20341;-74
2022/09/30 04:09:12;;;;;;;27.52;24.15;;;7.20;92.60;;;;;;4924170;29;20035;-74
2022/09/30 04:11:38;;;;;;;25.10;22.45;;;7.20;92.70;;;;;;4923201;29;20384;-74
2022/09/30 04:14:04;;;;;;;27.92;24.92;;;7.20;92.60;;;;;;4921951;29;20106;-74
2022/09/30 04:16:31;;;;;;;26.25;23.13;;;7.30;92.70;;;;;;4925566;29;20476;-74
2022/09/30 04:18:56;;;;;;;27.25;24.55;;;7.30;92.60;;;;;;4921267;28;20048;-77
2022/09/30 04:21:22;;;;;;;28.40;23.95;;;7.20;92.60;;;;;;4920025;29;20035;-76
2022/09/30 04:23:49;;;;;;;26.23;23.42;;;7.20;92.60;;;;;;4919285;28;20119;-75
2022/09/30 04:26:16;;;;;;;27.90;23.48;;;7.10;92.70;;;;;;4919568;29;20583;-77
2022/09/30 04:28:42;;;;;;;27.60;23.50;;;7.20;92.70;;;;;;4924839;28;20472;-78
2022/09/30 04:31:10;;;;;;;28.00;25.00;;;7.20;92.80;;;;;;4918456;29;20031;-74
2022/09/30 04:33:36;;;;;;;26.00;23.20;;;7.20;92.80;;;;;;4920626;29;20020;-73
2022/09/30 04:36:03;;;;;;;28.58;24.13;;;7.10;92.80;;;;;;4924284;29;20035;-75
2022/09/30 04:38:29;;;;;;;28.05;23.95;;;7.10;92.80;;;;;;4921878;29;20063;-74
2022/09/30 04:40:56;;;;;;;27.75;24.77;;;7.10;92.90;;;;;;4905250;29;20427;-75
2022/09/30 04:43:23;;;;;;;27.33;24.17;;;7.10;92.90;;;;;;4925178;29;20091;-76
2022/09/30 04:45:51;;;;;;;30.80;23.95;;;7.20;92.90;;;;;;4921023;29;20046;-74
2022/09/30 04:48:17;;;;;;;28.40;24.35;;;7.20;92.90;;;;;;4925754;29;20040;-74
2022/09/30 04:50:42;;;;;;;29.40;24.13;;;7.20;93.00;;;;;;4904107;29;20066;-75
2022/09/30 04:53:11;;;;;;;27.23;23.83;;;7.10;92.90;;;;;;4920374;29;20055;-74
2022/09/30 04:55:36;;;;;;;26.65;23.77;;;7.10;92.90;;;;;;4922266;29;20031;-76
2022/09/30 04:58:03;;;;;;;24.33;21.42;;;7.10;92.90;;;;;;4925223;29;20031;-73
2022/09/30 05:00:29;;;;;;;28.05;25.15;;;7.10;92.90;;;;;;4923844;29;20061;-75
2022/09/30 05:02:54;;;;;;;29.58;25.52;;;7.10;93.00;;;;;;4922055;29;20464;-76
2022/09/30 05:05:20;;;;;;;28.55;24.65;;;7.10;93.00;;;;;;4925879;29;20039;-77
2022/09/30 05:07:46;;;;;;;28.73;25.73;;;7.10;93.00;;;;;;4922603;29;21079;-78
2022/09/30 05:10:12;;;;;;;31.77;26.45;;;7.10;93.00;;;;;;4918806;29;20388;-76
2022/09/30 05:12:41;;;;;;;27.98;24.13;;;7.10;93.00;;;;;;4922022;29;20111;-76
2022/09/30 05:15:08;;;;;;;29.67;23.30;;;7.10;93.00;;;;;;4924176;29;20582;-75
2022/09/30 05:17:34;;;;;;;29.50;24.05;;;7.10;93.00;;;;;;4920216;29;20043;-79
2022/09/30 05:20:00;;;;;;;28.38;23.58;;;7.10;93.00;;;;;;4918377;29;20051;-76
2022/09/30 05:22:26;;;;;;;28.70;24.42;;;7.10;93.00;;;;;;4920661;29;20067;-81
2022/09/30 05:24:53;;;;;;;28.80;23.15;;;7.10;93.10;;;;;;4927443;28;20024;-76
2022/09/30 05:27:19;;;;;;;30.20;25.30;;;7.10;93.00;;;;;;4923980;28;20466;-77
2022/09/30 05:29:44;;;;;;;32.55;25.70;;;7.10;93.10;;;;;;4928021;29;20047;-76
2022/09/30 05:32:10;;;;;;;27.65;24.42;;;7.10;93.10;;;;;;4919123;29;20492;-77
2022/09/30 05:34:37;;;;;;;27.73;22.88;;;7.10;93.10;;;;;;4920404;28;20035;-78
2022/09/30 05:37:08;;;;;;;25.90;22.50;;;7.10;93.10;;;;;;4921758;29;20027;-78
2022/09/30 05:39:34;;;;;;;25.70;22.98;;;7.10;93.10;;;;;;4922072;28;20039;-77
2022/09/30 05:41:59;;;;;;;30.80;24.20;;;7.10;93.10;;;;;;4922453;29;20028;-74
2022/09/30 05:44:25;;;;;;;27.77;23.95;;;7.10;93.20;;;;;;4924748;29;20583;-77
2022/09/30 05:46:51;;;;;;;27.02;22.33;;;7.10;93.10;;;;;;4915567;29;20047;-74
2022/09/30 05:49:17;;;;;;;26.13;22.95;;;7.10;93.10;;;;;;4919955;28;20050;-78
2022/09/30 05:51:42;;;;;;;26.92;24.00;;;7.10;93.10;;;;;;4923144;29;20068;-77
2022/09/30 05:54:09;;;;;;;30.30;26.58;;;7.10;93.20;;;;;;4918238;29;20070;-76
2022/09/30 05:56:37;;;;;;;33.20;25.77;;;7.20;93.10;;;;;;4918263;29;20024;-75
2022/09/30 05:59:03;;;;;;;30.30;25.65;;;7.10;93.00;;;;;;4924583;28;20040;-79
2022/09/30 06:01:29;;;;;;;31.45;24.80;;;7.20;93.10;;;;;;4920935;29;20123;-80
2022/09/30 06:03:55;;;;;;;29.17;26.08;;;7.20;93.10;;;;;;4927102;28;20043;-80
2022/09/30 06:06:21;;;;;;;31.90;25.42;;;7.20;93.00;;;;;;4928255;29;20042;-80
2022/09/30 06:08:47;;;;;;;29.48;23.80;;;7.20;93.10;;;;;;4924575;29;20557;-80
2022/09/30 06:11:15;;;;;;;28.60;24.30;;;7.30;93.10;;;;;;4925619;29;20083;-80
2022/09/30 06:13:41;;;;;;;27.55;23.55;;;7.30;93.00;;;;;;4909072;28;20139;-80
2022/09/30 06:16:08;;;;;;;25.52;22.83;;;7.30;93.10;;;;;;4928248;28;20036;-79
2022/09/30 06:18:34;;;;;;;25.58;20.80;;;7.40;93.10;;;;;;4919837;28;20039;-79
2022/09/30 06:21:03;;;;;;;23.15;20.08;;;7.50;93.20;;;;;;4945358;28;20028;-80
2022/09/30 06:23:31;;;;;;;22.23;18.73;;;7.60;93.30;;;;;;4942074;28;20039;-80
2022/09/30 06:25:57;;;;;;;21.52;18.75;;;7.80;93.30;;;;;;4923301;29;20028;-80
2022/09/30 06:28:24;;;;;;;19.25;15.50;;;8.10;93.20;;;;;;4924704;28;20040;-79
2022/09/30 06:30:50;;;;;;;20.98;17.13;;;8.40;93.10;;;;;;4926561;29;20035;-80
2022/09/30 06:33:16;;;;;;;24.05;17.52;;;8.70;92.50;;;;;;4924292;29;20494;-81
2022/09/30 06:35:42;;;;;;;19.08;16.75;;;8.70;91.80;;;;;;4928235;28;20092;-80
2022/09/30 06:38:11;;;;;;;19.42;16.40;;;8.60;91.30;;;;;;4920395;29;20535;-81
2022/09/30 06:40:37;;;;;;;20.65;17.02;;;8.60;91.00;;;;;;4924378;28;20087;-80
2022/09/30 06:43:03;;;;;;;22.25;18.40;;;8.60;90.80;;;;;;4922347;29;20150;-80
2022/09/30 06:45:31;;;;;;;21.75;19.42;;;8.60;90.80;;;;;;4926433;28;20118;-80
2022/09/30 06:47:58;;;;;;;24.95;19.73;;;8.60;90.90;;;;;;4928566;29;20058;-80
2022/09/30 06:50:24;;;;;;;24.15;19.48;;;8.60;90.80;;;;;;4907385;29;20091;-80
2022/09/30 06:52:50;;;;;;;22.42;18.60;;;8.60;90.90;;;;;;4924741;29;20042;-80
2022/09/30 06:55:17;;;;;;;21.60;18.90;;;8.70;90.90;;;;;;4924556;28;20592;-81
2022/09/30 06:57:45;;;;;;;25.95;20.15;;;8.70;90.90;;;;;;4926850;29;20063;-80
2022/09/30 07:00:11;;;;;;;24.88;18.60;;;8.70;90.70;;;;;;4922834;28;20039;-80
2022/09/30 07:02:38;;;;;;;24.55;19.25;;;8.80;90.80;;;;;;4921527;29;20485;-80
2022/09/30 07:05:04;;;;;;;24.55;18.13;;;8.80;90.70;;;;;;4926460;28;20059;-80
2022/09/30 07:07:33;;;;;;;25.67;18.05;;;8.80;90.70;;;;;;4926369;29;20028;-79
2022/09/30 07:09:59;;;;;;;25.08;19.23;;;8.80;90.80;;;;;;4922312;28;20457;-81
2022/09/30 07:12:25;;;;;;;24.83;19.23;;;8.90;90.90;;;;;;4923667;29;20033;-80
2022/09/30 07:14:51;;;;;;;23.27;18.83;;;8.90;90.90;;;;;;4926628;28;20047;-80
2022/09/30 07:17:17;;;;;;;29.45;20.63;;;9.10;91.00;;;;;;4927727;29;20045;-80
2022/09/30 07:19:43;;;;;;;24.02;19.48;;;9.10;91.10;;;;;;4919705;28;20436;-81
2022/09/30 07:22:28;;;;;;;30.25;19.15;;;9.20;91.10;;;;;;4914061;29;20100;-79
2022/09/30 07:24:56;;;;;;;30.88;24.08;;;9.40;91.10;;;;;;4896999;29;20025;-80
2022/09/30 07:27:22;;;;;;;37.50;31.08;;;9.50;90.90;;;;;;4918891;29;20038;-80
2022/09/30 07:29:48;;;;;;;35.60;29.83;;;9.70;90.60;;;;;;4924477;28;20118;-80
2022/09/30 07:32:14;;;;;;;30.65;26.08;;;9.80;90.40;;;;;;4929570;29;20545;-82
2022/09/30 07:34:43;;;;;;;25.70;21.10;;;10.00;90.00;;;;;;4920980;28;20126;-80
2022/09/30 07:37:11;;;;;;;26.02;19.88;;;10.10;89.60;;;;;;4918336;29;20040;-80
2022/09/30 07:39:37;;;;;;;25.05;18.52;;;10.10;89.50;;;;;;4928555;28;20054;-78
2022/09/30 07:42:04;;;;;;;24.80;18.85;;;10.30;89.10;;;;;;4925922;29;20072;-79
2022/09/30 07:44:30;;;;;;;26.63;18.50;;;10.40;88.90;;;;;;4919684;29;20122;-80
2022/09/30 07:46:57;;;;;;;24.80;18.10;;;10.50;88.60;;;;;;4924908;29;20035;-78
2022/09/30 07:49:24;;;;;;;24.48;17.48;;;10.70;88.40;;;;;;4921090;28;20028;-77
2022/09/30 07:51:55;;;;;;;24.25;16.98;;;10.80;88.10;;;;;;4929391;28;20039;-75
2022/09/30 07:54:24;;;;;;;24.30;16.55;;;11.00;87.60;;;;;;4921813;28;20032;-76
2022/09/30 07:56:50;;;;;;;23.88;17.10;;;11.20;87.10;;;;;;4927016;29;20036;-75
2022/09/30 07:59:17;;;;;;;23.17;15.68;;;11.40;86.70;;;;;;4926537;29;20055;-77
2022/09/30 08:01:43;;;;;;;23.75;17.02;;;11.60;86.10;;;;;;4931305;29;20039;-74
2022/09/30 08:04:11;;;;;;;22.08;16.10;;;11.80;85.70;;;;;;4921556;28;20031;-75
2022/09/30 08:06:44;;;;;;;21.77;16.17;;;12.00;85.00;;;;;;4926361;29;20020;-75
2022/09/30 08:09:10;;;;;;;20.48;15.23;;;12.20;84.20;;;;;;4903264;28;20023;-75
2022/09/30 08:11:37;;;;;;;18.95;14.77;;;12.50;83.80;;;;;;4921997;29;20399;-73
2022/09/30 08:14:03;;;;;;;18.58;14.10;;;12.60;82.80;;;;;;4908256;29;20071;-78
2022/09/30 08:16:29;;;;;;;19.25;14.43;;;12.80;82.20;;;;;;4926549;29;20147;-79
2022/09/30 08:18:57;;;;;;;20.88;15.43;;;13.00;81.80;;;;;;4921924;28;20048;-78
2022/09/30 08:21:23;;;;;;;19.52;15.82;;;13.10;81.00;;;;;;4923219;29;20048;-78
2022/09/30 08:23:49;;;;;;;18.55;14.73;;;13.30;80.40;;;;;;4926332;28;20092;-80
2022/09/30 08:26:16;;;;;;;18.08;12.77;;;13.40;80.30;;;;;;4922858;29;20031;-85
2022/09/30 08:28:45;;;;;;;17.90;12.70;;;13.60;79.10;;;;;;4925441;28;20039;-80
2022/09/30 08:31:19;;;;;;;22.65;13.88;;;13.70;79.10;;;;;;4922728;29;20450;-79
2022/09/30 08:33:45;;;;;;;18.40;12.38;;;13.80;78.80;;;;;;4926713;28;20020;-82
2022/09/30 08:36:17;;;;;;;17.67;12.75;;;14.00;78.20;;;;;;4922228;29;20024;-79
2022/09/30 08:38:43;;;;;;;18.13;12.32;;;14.10;78.40;;;;;;4916515;28;20118;-79
2022/09/30 08:41:28;;;;;;;18.67;11.98;;;14.20;77.30;;;;;;4919332;29;20119;-79
2022/09/30 08:44:03;;;;;;;14.32;11.90;;;14.40;77.00;;;;;;4911414;29;20040;-81
2022/09/30 08:46:34;;;;;;;;;;;14.60;76.00;;;;;;4936428;28;20040;-78
2022/09/30 08:49:12;;;;;;;15.88;11.30;;;14.60;76.30;;;;;;4908764;29;19911;-77
2022/09/30 08:51:56;;;;;;;14.48;11.57;;;14.80;76.10;;;;;;4919066;28;20034;-79
2022/09/30 08:54:29;;;;;;;16.05;11.57;;;14.90;75.30;;;;;;4924846;28;20447;-76
2022/09/30 08:56:55;;;;;;;15.48;11.07;;;15.00;75.60;;;;;;4927935;29;20734;-77
2022/09/30 08:59:26;;;;;;;15.20;11.57;;;15.20;75.60;;;;;;4923797;29;20914;-77
2022/09/30 09:02:18;;;;;;;14.82;11.85;;;15.30;74.80;;;;;;4947866;29;20341;-76
2022/09/30 09:04:45;;;;;;;14.00;11.13;;;15.40;74.60;;;;;;4917022;28;20055;-78
2022/09/30 09:07:20;;;;;;;17.77;11.52;;;15.50;73.50;;;;;;4926446;29;20640;-78
2022/09/30 09:10:22;;;;;;;17.65;11.52;;;15.50;73.80;;;;;;4921687;29;20066;-79
2022/09/30 09:13:01;;;;;;;16.02;10.77;;;15.80;73.60;;;;;;4914837;29;20136;-79
2022/09/30 09:15:32;;;;;;;18.02;11.57;;;15.90;72.50;;;;;;4917066;28;20477;-79
2022/09/30 09:18:19;;;;;;;16.50;11.98;;;16.00;72.70;;;;;;4920851;29;20100;-79
2022/09/30 09:20:57;;;;;;;15.10;11.55;;;16.10;72.60;;;;;;4919663;29;20055;-80
2022/09/30 09:23:31;;;;;;;14.68;11.68;;;16.10;72.40;;;;;;4918687;29;20100;-77
2022/09/30 09:25:57;;;;;;;15.52;11.20;;;16.10;71.00;;;;;;4922165;29;20038;-80
2022/09/30 09:28:41;;;;;;;13.15;10.32;;;16.20;70.50;;;;;;4921423;29;20376;-78
2022/09/30 09:31:13;;;;;;;14.77;10.85;;;16.10;70.40;;;;;;4929158;29;20027;-77
2022/09/30 09:33:39;;;;;;;14.15;10.32;;;16.30;71.00;;;;;;4921073;28;20125;-78
2022/09/30 09:36:11;;;;;;;13.32;10.70;;;16.50;70.70;;;;;;4924669;29;20043;-76
2022/09/30 09:38:58;;;;;;;15.90;10.32;;;16.50;70.40;;;;;;4921643;28;20048;-78
2022/09/30 09:41:43;;;;;;;13.13;11.15;;;16.50;70.30;;;;;;4920117;29;20125;-78
2022/09/30 09:44:38;;;;;;;16.63;10.45;;;16.60;70.80;;;;;;4918209;28;20028;-78
2022/09/30 09:47:16;;;;;;;15.43;9.85;;;16.80;68.70;;;;;;4923854;29;20024;-78
2022/09/30 09:50:00;;;;;;;13.95;10.32;;;16.80;68.90;;;;;;4927543;28;20499;-78
2022/09/30 09:52:44;;;;;;;14.80;9.77;;;17.10;68.90;;;;;;4917167;29;20040;-78
2022/09/30 09:55:12;;;;;;;14.57;9.25;;;17.10;67.50;;;;;;4914946;29;20040;-78
2022/09/30 09:57:39;;;;;;;12.98;9.27;;;17.30;68.00;;;;;;4935460;28;20091;-78
2022/09/30 10:03:05;;;;;;;12.40;8.70;;;17.40;66.70;;;;;;4936580;28;20259;-78
2022/09/30 10:05:41;;;;;;;12.27;9.35;;;17.40;66.10;;;;;;4925640;28;20163;-76
2022/09/30 10:08:17;;;;;;;11.95;7.97;;;17.50;65.80;;;;;;4937143;28;20067;-78
2022/09/30 10:10:56;;;;;;;10.90;7.40;;;17.40;64.70;;;;;;4921906;29;20497;-78
2022/09/30 10:13:29;;;;;;;11.00;7.72;;;17.60;65.00;;;;;;4927564;29;20082;-79
2022/09/30 10:15:57;;;;;;;9.43;6.65;;;17.60;63.80;;;;;;4928132;28;20028;-81
2022/09/30 10:18:26;;;;;;;10.15;5.88;;;17.20;64.20;;;;;;4918541;29;20028;-79
2022/09/30 10:20:55;;;;;;;14.25;8.10;;;17.40;63.70;;;;;;4916633;29;20044;-79
2022/09/30 10:23:32;;;;;;;10.98;7.68;;;17.60;63.10;;;;;;4942448;29;20076;-80
2022/09/30 10:26:12;;;;;;;11.05;7.60;;;17.70;62.80;;;;;;4925815;29;20042;-79
2022/09/30 10:28:58;;;;;;;12.15;6.43;;;17.80;62.10;;;;;;4914511;29;20063;-79
2022/09/30 10:31:28;;;;;;;14.20;5.90;;;17.70;62.20;;;;;;4916192;29;20056;-79
2022/09/30 10:34:06;;;;;;;12.23;6.40;;;17.90;62.50;;;;;;4918973;28;20039;-78
2022/09/30 10:36:38;;;;;;;10.65;6.15;;;18.00;62.40;;;;;;4915386;28;20403;-81
2022/09/30 10:39:33;;;;;;;9.10;6.47;;;17.70;63.70;;;;;;4904291;29;20047;-76
2022/09/30 10:42:09;;;;;;;7.90;5.38;;;18.00;63.80;;;;;;4898771;29;20515;-78
2022/09/30 10:44:42;;;;;;;10.52;5.40;;;18.10;60.90;;;;;;4930399;28;20127;-77
2022/09/30 10:47:12;;;;;;;8.35;5.95;;;18.40;61.30;;;;;;4917922;28;20032;-78
2022/09/30 10:49:44;;;;;;;10.05;5.75;;;18.30;60.40;;;;;;4916304;29;20040;-77
2022/09/30 10:52:23;;;;;;;8.57;5.65;;;17.90;61.10;;;;;;4916993;29;20059;-76
2022/09/30 10:54:53;;;;;;;10.05;5.13;;;17.80;59.60;;;;;;4931233;28;20118;-77
2022/09/30 10:57:28;;;;;;;9.23;5.50;;;17.70;60.00;;;;;;4916494;29;20036;-76
2022/09/30 11:00:05;;;;;;;7.90;5.13;;;17.70;59.50;;;;;;4915468;28;20051;-75
2022/09/30 11:03:02;;;;;;;7.80;4.47;;;17.70;60.40;;;;;;4917522;29;20472;-78
2022/09/30 11:05:30;;;;;;;8.07;4.63;;;17.60;60.50;;;;;;4918232;29;20051;-78
2022/09/30 11:08:09;;;;;;;8.57;4.05;;;18.00;60.80;;;;;;4917831;29;20114;-78
2022/09/30 11:11:08;;;;;;;7.70;4.88;;;18.10;58.70;;;;;;4919606;29;20051;-78
2022/09/30 11:13:57;;;;;;;8.48;5.15;;;18.10;58.40;;;;;;4917313;29;20130;-78
2022/09/30 11:16:53;;;;;;;9.80;5.07;;;18.10;58.80;;;;;;4901561;29;20396;-78
2022/09/30 11:19:49;;;;;;;9.38;5.60;;;18.30;58.40;;;;;;4914017;28;20048;-78
2022/09/30 11:22:51;;;;;;;9.57;5.28;;;18.10;59.00;;;;;;4916563;28;20046;-78
2022/09/30 11:25:26;;;;;;;8.93;5.57;;;17.90;57.20;;;;;;4891608;29;20094;-77
2022/09/30 11:28:14;;;;;;;9.57;5.00;;;18.10;58.20;;;;;;4916337;29;20040;-78
2022/09/30 11:31:07;;;;;;;7.93;4.45;;;18.20;58.40;;;;;;4898375;29;20051;-78
2022/09/30 11:33:49;;;;;;;9.73;5.32;;;18.60;57.70;;;;;;4915627;29;20479;-77
2022/09/30 11:36:33;;;;;;;6.72;4.40;;;18.30;56.50;;;;;;4920139;29;20032;-78
2022/09/30 11:39:15;;;;;;;9.45;4.88;;;18.50;57.10;;;;;;4934763;28;20587;-78
2022/09/30 11:42:06;;;;;;;9.02;4.90;;;18.20;56.90;;;;;;4925076;29;20122;-78
2022/09/30 11:44:33;;;;;;;6.85;4.43;;;18.00;58.40;;;;;;4922411;28;20095;-77
2022/09/30 11:47:18;;;;;;;7.85;4.97;;;18.20;58.60;;;;;;4939612;29;20063;-78
2022/09/30 11:50:27;;;;;;;7.05;4.90;;;18.20;58.40;;;;;;4918779;29;20364;-77
2022/09/30 11:53:09;;;;;;;8.60;5.07;;;17.90;58.90;;;;;;4917085;29;20058;-78
2022/09/30 11:55:56;;;;;;;6.10;3.78;;;17.70;58.20;;;;;;4926567;29;20118;-77
2022/09/30 11:58:27;;;;;;;7.18;3.78;;;17.50;58.00;;;;;;4898441;29;20036;-77
2022/09/30 12:01:20;;;;;;;8.77;4.13;;;17.70;58.10;;;;;;4921023;29;20090;-79
2022/09/30 12:03:56;;;;;;;7.82;4.78;;;18.00;59.00;;;;;;4925923;28;20055;-80
2022/09/30 12:06:36;;;;;;;7.57;4.15;;;18.50;58.40;;;;;;4923036;29;20064;-81
2022/09/30 12:09:19;;;;;;;8.50;4.43;;;18.70;55.90;;;;;;4910332;29;20575;-82
2022/09/30 12:11:54;;;;;;;9.80;4.55;;;18.80;55.20;;;;;;4922538;29;20507;-81
2022/09/30 12:14:29;;;;;;;8.23;4.15;;;18.90;54.90;;;;;;4929034;28;20100;-84
2022/09/30 12:16:58;;;;;;;7.72;3.92;;;18.70;55.50;;;;;;4924881;29;20391;-83
2022/09/30 12:19:38;;;;;;;9.05;4.55;;;18.60;56.20;;;;;;4915579;29;20368;-81
2022/09/30 12:22:15;;;;;;;7.80;4.43;;;18.40;56.20;;;;;;4922086;29;20098;-81
2022/09/30 12:24:44;;;;;;;8.50;4.47;;;18.30;57.00;;;;;;4918774;28;20463;-84
2022/09/30 12:27:20;;;;;;;8.18;3.33;;;18.30;57.10;;;;;;4906568;29;20388;-81
2022/09/30 12:33:09;;;;;;;8.65;4.55;;;18.20;56.50;;;;;;4924510;29;20081;-85
2022/09/30 12:36:05;;;;;;;7.80;3.47;;;18.50;56.70;;;;;;4919267;29;20062;-80
2022/09/30 12:38:59;;;;;;;6.00;3.67;;;18.60;54.20;;;;;;4924548;29;20024;-79
2022/09/30 12:42:06;;;;;;;7.18;2.97;;;18.90;53.80;;;;;;4922941;29;20087;-78
2022/09/30 12:44:35;;;;;;;6.18;2.55;;;18.90;53.30;;;;;;4921637;28;20496;-82
2022/09/30 12:47:18;;;;;;;6.22;2.70;;;18.90;52.60;;;;;;4929959;29;20036;-79
2022/09/30 12:49:45;;;;;;;5.55;3.00;;;18.90;54.00;;;;;;4904322;29;20375;-84
2022/09/30 12:52:19;;;;;;;5.05;2.90;;;18.90;54.20;;;;;;4924755;29;20028;-87
2022/09/30 12:54:52;;;;;;;6.25;3.03;;;19.00;54.20;;;;;;4940117;28;20031;-79
2022/09/30 12:57:30;;;;;;;6.25;3.30;;;19.30;53.50;;;;;;4917868;29;20024;-78
2022/09/30 13:00:02;;;;;;;4.63;2.63;;;19.10;52.00;;;;;;4921516;28;20475;-76
2022/09/30 13:02:38;;;;;;;5.32;2.92;;;19.00;51.20;;;;;;4925806;29;20036;-76
2022/09/30 13:05:26;;;;;;;4.85;2.75;;;19.10;52.30;;;;;;4923477;28;20032;-79
2022/09/30 13:08:04;;;;;;;6.68;3.28;;;19.20;52.70;;;;;;4941877;29;20578;-79
2022/09/30 13:10:33;;;;;;;7.55;3.05;;;19.10;52.40;;;;;;4919798;29;20341;-78
2022/09/30 13:13:23;;;;;;;4.35;2.70;;;19.40;53.30;;;;;;4929691;29;20164;-78
2022/09/30 13:15:51;;;;;;;6.90;3.58;;;19.30;52.80;;;;;;4920170;29;20035;-75
2022/09/30 13:18:19;;;;;;;4.55;2.65;;;19.20;51.50;;;;;;4906133;29;20332;-80